Ευχαριστούμε που συμβάλλετε στη διατήρηση της σελίδας μας.

Thank you for your donations, it really helps to maintain the page.

Meteo Stats And More

Στατιστικά Καιρού Και Άλλα






Δείκτης πυρκαγιάς (FWI)

Φωνητική Πρόγνωση Καιρού : 

Κάμερα Ρωμανού more information Romanos Cam


Ιστιοπλοικός Όμιλος Πάτρας more information Istioploikos Omilos Patras


Ραντάρ Κεραυνών more information blitzortung!


Ραντάρ Βροχής more information rain snow radar



Κοντινές Αναφορές METAR

  
LGRX - Araxos (civ/Afb), Greece
Απόσταση από τον σταθμό: ΔΝΔ 30km
Ενημερώθηκε: 21-11-2017 17:20
Αίθριος
Αίθριος  
 Άνεμος από calm
Άνεμος: Άπνοια
Θερμοκρασία:  12°C
Σημείο Δρόσου:  2°C
Υγρασία:  51%
Βαρόμετρο:  1021 hPa
Περίληψη:  Αίθριος
Ορατότητα:  μεγαλύτερο από 10 km
2017/11/21 15:20 LGRX 211520Z 00000KT CAVOK 12/02 Q1021
LGAD - Andravida (civ/A, Greece
Απόσταση από τον σταθμό: ΝΔ 55km
Ενημερώθηκε: 21-11-2017 17:20
Αίθριος
Αίθριος  
 Άνεμος από calm
Άνεμος: Άπνοια
Θερμοκρασία:  12°C
Σημείο Δρόσου:  2°C
Υγρασία:  51%
Βαρόμετρο:  1021 hPa
Περίληψη:  Αίθριος
Ορατότητα:  μεγαλύτερο από 10 km
2017/11/21 15:20 LGAD 211520Z 00000KT CAVOK 12/02 Q1021
LGZA - Zakinthos Airpor, Greece
Απόσταση από τον σταθμό: ΝΔ 95km
Ενημερώθηκε: 21-11-2017 16:50
Κυρίως Αίθριος
Κυρίως Αίθριος  
 Άνεμος από ΔΒΔ
Άνεμος: ΔΒΔ 7 km/h
Θερμοκρασία:  14°C
Σημείο Δρόσου:  11°C
Υγρασία:  82%
Βαρόμετρο:  1021 hPa
Σύννεφα:  Κυρίως Αίθριος
Ορατότητα:  10 km
Λεπτομέρειες Σύννεφου:  Κυρίως Αίθριος 610 m
2017/11/21 14:50 LGZA 211450Z 30004KT 9999 FEW020 14/11 Q1021
LGKF - Kefallinia, Greece
Απόσταση από τον σταθμό: Δ 110km
Ενημερώθηκε: 21-11-2017 13:50
ΜΗ τρέχουσες
Κυρίως Αίθριος
Κυρίως Αίθριος  
 Άνεμος από ΒΔ
Άνεμος: ΒΔ 15 km/h
Θερμοκρασία:  16°C
Σημείο Δρόσου:  6°C
Υγρασία:  52%
Βαρόμετρο:  1021 hPa
Σύννεφα:  Κυρίως Αίθριος
Ορατότητα:  10 km
Λεπτομέρειες Σύννεφου:  Κυρίως Αίθριος 549 m
2017/11/21 11:50 LGKF 211150Z 32008KT 9999 FEW018 16/06 Q1021
LGPZ - Preveza/Aktion, Greece
Απόσταση από τον σταθμό: ΒΔ 114km
Ενημερώθηκε: 21-11-2017 17:20
Κυρίως Αίθριος
Κυρίως Αίθριος  
 Άνεμος από ΒΒΔ
Άνεμος: ΒΒΔ 15 km/h
Θερμοκρασία:  13°C
Σημείο Δρόσου:  5°C
Υγρασία:  59%
Βαρόμετρο:  1022 hPa
Σύννεφα:  Κυρίως Αίθριος
Ορατότητα:  10 km
Λεπτομέρειες Σύννεφου:  Κυρίως Αίθριος 914 m
2017/11/21 15:20 LGPZ 211520Z 34008KT 9999 FEW030 13/05 Q1022
LGKL - Kalamata (hel-Af, Greece
Απόσταση από τον σταθμό: Ν 132km
Ενημερώθηκε: 21-11-2017 17:20
Αίθριος
Αίθριος  
 Άνεμος από calm
Άνεμος: Άπνοια
Θερμοκρασία:  12°C
Σημείο Δρόσου:  1°C
Υγρασία:  47%
Βαρόμετρο:  1020 hPa
Περίληψη:  Αίθριος
Ορατότητα:  μεγαλύτερο από 10 km
2017/11/21 15:20 LGKL 211520Z 00000KT CAVOK 12/01 Q1020
LGBL - Nea Anchialos, Greece
Απόσταση από τον σταθμό: ΒΑ 142km
Ενημερώθηκε: 21-11-2017 17:20
Αίθριος
Αίθριος  
 Άνεμος από ποικίλλει
Άνεμος: ποικίλλει 6 km/h
Θερμοκρασία:  8°C
Σημείο Δρόσου:  3°C
Υγρασία:  71%
Βαρόμετρο:  1019 hPa
Περίληψη:  Αίθριος
Ορατότητα:  μεγαλύτερο από 10 km
2017/11/21 15:20 LGBL 211520Z VRB03KT CAVOK 08/03 Q1019
LGEL - Elefsis (hel-Afb, Greece
Απόσταση από τον σταθμό: Α 158km
Ενημερώθηκε: 21-11-2017 17:20
Κυρίως Αίθριος
Κυρίως Αίθριος  
 Άνεμος από calm
Άνεμος: Άπνοια
Θερμοκρασία:  12°C
Σημείο Δρόσου:  1°C
Υγρασία:  47%
Βαρόμετρο:  1020 hPa
Σύννεφα:  Κυρίως Αίθριος
Ορατότητα:  10 km
Λεπτομέρειες Σύννεφου:  Κυρίως Αίθριος 762 m
2017/11/21 15:20 LGEL 211520Z 00000KT 9999 FEW025 12/01 Q1020
LGIO - Ioannina, Greece
Απόσταση από τον σταθμό: ΒΒΔ 181km
Ενημερώθηκε: 21-11-2017 17:20
Αίθριος
Αίθριος  
 Άνεμος από ποικίλλει
Άνεμος: ποικίλλει 0 km/h
Θερμοκρασία:  9°C
Σημείο Δρόσου:  -3°C
Υγρασία:  43%
Βαρόμετρο:  1020 hPa
Περίληψη:  Αίθριος
Ορατότητα:  μεγαλύτερο από 10 km
2017/11/21 15:20 LGIO 211520Z /////KT CAVOK 09/M03 Q1020
LGSK - Skiathos Island, Greece
Απόσταση από τον σταθμό: ΒΑ 185km
Ενημερώθηκε: 21-11-2017 16:50
Αίθριος
Αίθριος  
 Άνεμος από calm
Άνεμος: Άπνοια
Θερμοκρασία:  12°C
Σημείο Δρόσου:  0°C
Υγρασία:  44%
Βαρόμετρο:  1020 hPa
Περίληψη:  Αίθριος
Ορατότητα:  μεγαλύτερο από 10 km
2017/11/21 14:50 LGSK 211450Z 00000KT CAVOK 12/M00 Q1020
LGAV - Athens/Elef-Ven, Greece
Απόσταση από τον σταθμό: Α 195km
Ενημερώθηκε: 21-11-2017 17:20
Αίθριος
Αίθριος  
 Άνεμος από ποικίλλει
Άνεμος: ποικίλλει 6 km/h
Θερμοκρασία:  12°C
Σημείο Δρόσου:  -3°C
Υγρασία:  35%
Βαρόμετρο:  1020 hPa
Περίληψη:  Αίθριος
Ορατότητα:  μεγαλύτερο από 10 km
2017/11/21 15:20 LGAV 211520Z VRB03KT CAVOK 12/M03 Q1020 NOSIG
LGKR - Ioannis Kapodist, Greece
Απόσταση από τον σταθμό: ΒΔ 221km
Ενημερώθηκε: 21-11-2017 17:20
Αίθριος
Αίθριος  
 Άνεμος από ΔΒΔ
Άνεμος: ΔΒΔ 6 km/h
Θερμοκρασία:  15°C
Σημείο Δρόσου:  6°C
Υγρασία:  55%
Βαρόμετρο:  1021 hPa
Περίληψη:  Αίθριος
Ορατότητα:  μεγαλύτερο από 10 km
2017/11/21 15:20 LGKR 211520Z 29003KT CAVOK 15/06 Q1021 NOSIG

Script developed by  Saratoga-weather.org Προσαρμοσμένος για το πρότυπο του  Weerstation Leuven

Μπορείτε να βρείτε πληροφορίες καιρού μας και σε:


European Weather Network

WeatherCloud

Weather Underground

Hellas Meteo Network

AWEKAS

HAMweather, WeatherForYou, PWS Weather